createdAt,value
2022-10-30T00:01:39.831Z,13.10
2022-10-30T00:04:08.714Z,13.10
2022-10-30T00:06:42.213Z,13.20
2022-10-30T00:09:11.721Z,13.20
2022-10-30T00:11:40.867Z,13.10
2022-10-30T00:14:09.863Z,13.10
2022-10-30T00:16:38.720Z,13.10
2022-10-30T00:19:09.727Z,13.10
2022-10-30T00:21:39.263Z,13.10
2022-10-30T00:24:09.880Z,13.00
2022-10-30T00:26:38.563Z,13.00
2022-10-30T00:29:06.932Z,13.00
2022-10-30T00:31:36.998Z,13.00
2022-10-30T00:34:06.928Z,13.00
2022-10-30T00:36:38.585Z,13.00
2022-10-30T00:39:07.897Z,13.00
2022-10-30T00:41:37.182Z,13.00
2022-10-30T00:44:20.269Z,13.00
2022-10-30T00:46:48.933Z,13.10
2022-10-30T00:49:18.919Z,13.10
2022-10-30T00:51:51.732Z,13.10
2022-10-30T00:54:22.215Z,13.10
2022-10-30T00:56:54.722Z,13.10
2022-10-30T00:59:50.105Z,13.10
2022-10-30T01:02:19.874Z,13.10
2022-10-30T01:04:54.729Z,13.10
2022-10-30T01:07:24.386Z,13.10
2022-10-30T01:09:52.536Z,13.10
2022-10-30T01:12:20.998Z,13.00
2022-10-30T01:14:54.407Z,13.00
2022-10-30T01:17:50.432Z,13.10
2022-10-30T01:20:44.875Z,13.10
2022-10-30T01:23:31.701Z,13.10
2022-10-30T01:26:09.760Z,13.10
2022-10-30T01:29:05.439Z,13.10
2022-10-30T01:31:47.286Z,13.20
2022-10-30T01:34:21.901Z,13.20
2022-10-30T01:36:57.807Z,13.20
2022-10-30T01:39:30.945Z,13.20
2022-10-30T01:42:00.810Z,13.20
2022-10-30T01:44:32.918Z,13.20
2022-10-30T01:47:19.539Z,13.20
2022-10-30T01:50:10.930Z,13.20
2022-10-30T01:52:48.745Z,13.10
2022-10-30T01:55:30.909Z,13.10
2022-10-30T01:58:04.454Z,13.20
2022-10-30T02:00:41.929Z,13.20
2022-10-30T02:03:10.424Z,13.20
2022-10-30T02:05:45.471Z,13.20
2022-10-30T02:08:14.918Z,13.10
2022-10-30T02:10:46.747Z,13.10
2022-10-30T02:13:15.460Z,13.20
2022-10-30T02:15:47.035Z,13.20
2022-10-30T02:18:15.651Z,13.20
2022-10-30T02:20:45.948Z,13.20
2022-10-30T02:23:21.399Z,13.30
2022-10-30T02:25:51.483Z,13.30
2022-10-30T02:28:19.931Z,13.30
2022-10-30T02:30:48.057Z,13.30
2022-10-30T02:35:51.477Z,13.30
2022-10-30T02:38:19.806Z,13.40
2022-10-30T02:40:49.021Z,13.40
2022-10-30T02:43:17.228Z,13.30
2022-10-30T02:45:45.451Z,13.30
2022-10-30T02:48:18.541Z,13.20
2022-10-30T02:50:46.776Z,13.20
2022-10-30T02:53:16.991Z,13.20
2022-10-30T02:55:47.176Z,13.20
2022-10-30T02:58:18.515Z,13.20
2022-10-30T03:00:47.861Z,13.20
2022-10-30T03:03:19.985Z,13.20
2022-10-30T03:05:54.532Z,13.20
2022-10-30T03:08:25.022Z,13.20
2022-10-30T03:10:54.000Z,13.20
2022-10-30T03:13:22.951Z,13.20
2022-10-30T03:15:54.515Z,13.20
2022-10-30T03:18:23.008Z,13.20
2022-10-30T03:20:51.272Z,13.20
2022-10-30T03:23:19.949Z,13.20
2022-10-30T03:25:52.582Z,13.20
2022-10-30T03:28:21.966Z,13.20
2022-10-30T03:30:50.584Z,13.10
2022-10-30T03:33:19.808Z,13.10
2022-10-30T03:35:49.001Z,13.10
2022-10-30T03:38:17.226Z,13.00
2022-10-30T03:40:46.021Z,13.00
2022-10-30T03:43:18.591Z,13.00
2022-10-30T03:45:51.819Z,13.00
2022-10-30T03:48:25.246Z,13.00
2022-10-30T03:50:54.844Z,13.00
2022-10-30T03:53:24.059Z,13.00
2022-10-30T03:55:53.826Z,13.00
2022-10-30T03:58:26.521Z,12.90
2022-10-30T04:01:04.940Z,12.90
2022-10-30T04:03:36.442Z,12.90
2022-10-30T04:06:06.945Z,12.90
2022-10-30T04:08:35.973Z,12.90
2022-10-30T04:11:06.039Z,12.80
2022-10-30T04:13:39.104Z,12.90
2022-10-30T04:16:07.843Z,12.90
2022-10-30T04:18:37.004Z,12.80
2022-10-30T04:21:08.996Z,12.90
2022-10-30T04:23:39.038Z,12.80
2022-10-30T04:26:08.011Z,12.80
2022-10-30T04:28:40.852Z,12.80
2022-10-30T04:31:13.008Z,12.90
2022-10-30T04:33:43.005Z,12.90
2022-10-30T04:36:12.247Z,12.90
2022-10-30T04:38:40.373Z,13.00
2022-10-30T04:41:16.085Z,13.00
2022-10-30T04:44:02.135Z,13.00
2022-10-30T04:46:34.016Z,13.00
2022-10-30T04:49:10.867Z,13.00
2022-10-30T04:51:40.031Z,13.00
2022-10-30T04:54:12.819Z,13.00
2022-10-30T04:56:42.074Z,13.00
2022-10-30T04:59:11.564Z,13.10
2022-10-30T05:01:41.198Z,13.10
2022-10-30T05:04:10.017Z,13.10
2022-10-30T05:06:39.874Z,13.00
2022-10-30T05:09:10.003Z,13.00
2022-10-30T05:11:45.398Z,13.00
2022-10-30T05:14:16.996Z,13.00
2022-10-30T05:16:47.884Z,13.00
2022-10-30T05:19:16.212Z,13.00
2022-10-30T05:21:52.721Z,12.90
2022-10-30T05:24:22.053Z,12.90
2022-10-30T05:26:53.106Z,12.90
2022-10-30T05:29:24.716Z,12.80
2022-10-30T05:31:53.013Z,12.80
2022-10-30T05:34:47.042Z,12.80
2022-10-30T05:37:19.866Z,12.80
2022-10-30T05:39:48.127Z,12.70
2022-10-30T05:42:34.496Z,12.80
2022-10-30T05:45:09.010Z,12.70
2022-10-30T05:47:41.214Z,12.80
2022-10-30T05:50:10.557Z,12.80
2022-10-30T05:52:39.737Z,12.70
2022-10-30T05:55:10.249Z,12.70
2022-10-30T05:57:47.036Z,12.70
2022-10-30T06:00:17.613Z,12.70
2022-10-30T06:02:45.723Z,12.80
2022-10-30T06:05:18.417Z,12.80
2022-10-30T06:07:48.050Z,12.80
2022-10-30T06:10:17.075Z,12.80
2022-10-30T06:13:09.118Z,12.80
2022-10-30T06:15:50.628Z,12.80
2022-10-30T06:18:19.811Z,12.80
2022-10-30T06:20:51.021Z,12.90
2022-10-30T06:23:39.099Z,12.90
2022-10-30T06:26:26.117Z,13.00
2022-10-30T06:29:01.525Z,13.00
2022-10-30T06:31:33.094Z,13.00
2022-10-30T06:34:03.090Z,13.00
2022-10-30T06:36:33.978Z,13.00
2022-10-30T06:39:02.774Z,13.00
2022-10-30T06:41:38.914Z,13.10
2022-10-30T06:44:33.743Z,13.10
2022-10-30T06:47:03.332Z,13.10
2022-10-30T06:49:34.690Z,13.10
2022-10-30T06:52:03.229Z,13.20
2022-10-30T06:54:32.131Z,13.10
2022-10-30T06:57:03.033Z,13.20
2022-10-30T07:00:03.431Z,13.10
2022-10-30T07:03:02.250Z,13.20
2022-10-30T07:05:31.670Z,13.20
2022-10-30T07:08:00.564Z,13.20
2022-10-30T07:10:29.114Z,13.30
2022-10-30T07:13:30.665Z,13.30
2022-10-30T07:16:07.303Z,13.30
2022-10-30T07:18:41.132Z,13.30
2022-10-30T07:21:09.739Z,13.40
2022-10-30T07:23:39.060Z,13.40
2022-10-30T07:26:20.305Z,13.40
2022-10-30T07:28:48.471Z,13.40
2022-10-30T07:31:42.400Z,13.40
2022-10-30T07:34:12.497Z,13.40
2022-10-30T07:36:51.152Z,13.40
2022-10-30T07:39:28.121Z,13.50
2022-10-30T07:42:28.954Z,13.50
2022-10-30T07:45:21.521Z,13.50
2022-10-30T07:48:16.785Z,13.50
2022-10-30T07:50:58.596Z,13.60
2022-10-30T07:53:28.112Z,13.60
2022-10-30T07:56:02.714Z,13.60
2022-10-30T07:58:51.116Z,13.60
2022-10-30T08:01:40.184Z,13.60
2022-10-30T08:04:25.187Z,13.70
2022-10-30T08:07:01.982Z,13.80
2022-10-30T08:09:31.091Z,13.70
2022-10-30T08:12:00.169Z,13.80
2022-10-30T08:14:29.145Z,13.80
2022-10-30T08:16:58.112Z,13.80
2022-10-30T08:19:30.461Z,13.80
2022-10-30T08:22:02.221Z,13.90
2022-10-30T08:24:38.525Z,13.90
2022-10-30T08:27:07.338Z,13.90
2022-10-30T08:29:36.143Z,13.90
2022-10-30T08:32:04.613Z,14.00
2022-10-30T08:34:55.336Z,14.10
2022-10-30T08:37:24.926Z,14.20
2022-10-30T08:39:54.215Z,14.10
2022-10-30T08:42:51.639Z,14.20
2022-10-30T08:45:31.200Z,14.20
2022-10-30T08:48:13.134Z,14.20
2022-10-30T08:50:43.337Z,14.20
2022-10-30T08:53:37.775Z,14.30
2022-10-30T08:56:11.251Z,14.40
2022-10-30T08:58:59.514Z,14.40
2022-10-30T09:01:28.961Z,14.40
2022-10-30T09:04:20.444Z,14.40
2022-10-30T09:07:21.158Z,14.40
2022-10-30T09:10:20.089Z,14.40
2022-10-30T09:12:56.037Z,14.40
2022-10-30T09:15:26.151Z,14.40
2022-10-30T09:17:58.261Z,14.40
2022-10-30T09:20:29.163Z,14.40
2022-10-30T09:22:58.562Z,14.40
2022-10-30T09:25:32.248Z,14.60
2022-10-30T09:28:27.171Z,14.60
2022-10-30T09:31:22.671Z,14.60
2022-10-30T09:33:53.905Z,14.50
2022-10-30T09:36:40.483Z,14.50
2022-10-30T09:39:09.182Z,14.40
2022-10-30T09:42:01.162Z,14.40
2022-10-30T09:44:48.791Z,14.40
2022-10-30T09:47:34.903Z,14.50
2022-10-30T09:50:27.384Z,14.60
2022-10-30T09:53:08.313Z,14.60
2022-10-30T09:55:43.187Z,14.70
2022-10-30T09:58:30.516Z,14.70
2022-10-30T10:01:09.951Z,14.70
2022-10-30T10:03:59.313Z,14.70
2022-10-30T10:06:54.915Z,14.80
2022-10-30T10:09:45.508Z,14.90
2022-10-30T10:12:37.162Z,15.00
2022-10-30T10:15:21.163Z,15.00
2022-10-30T10:17:49.302Z,15.10
2022-10-30T10:20:30.515Z,15.10
2022-10-30T10:23:01.296Z,15.20
2022-10-30T10:25:32.589Z,15.20
2022-10-30T10:28:21.013Z,15.20
2022-10-30T10:30:58.191Z,15.30
2022-10-30T10:33:47.184Z,15.40
2022-10-30T10:36:29.247Z,15.50
2022-10-30T10:39:19.372Z,15.60
2022-10-30T10:41:59.975Z,15.70
2022-10-30T10:44:42.727Z,15.70
2022-10-30T10:47:35.107Z,15.70
2022-10-30T10:50:19.066Z,15.70
2022-10-30T10:52:52.669Z,15.60
2022-10-30T10:55:24.535Z,15.50
2022-10-30T10:57:54.332Z,15.50
2022-10-30T11:00:49.426Z,15.50
2022-10-30T11:03:24.158Z,15.50
2022-10-30T11:05:58.500Z,15.60
2022-10-30T11:08:33.318Z,15.50
2022-10-30T11:11:03.143Z,15.50
2022-10-30T11:13:36.057Z,15.40
2022-10-30T11:16:18.310Z,15.50
2022-10-30T11:18:50.046Z,15.50
2022-10-30T11:21:22.254Z,15.60
2022-10-30T11:23:52.227Z,15.70
2022-10-30T11:26:32.590Z,15.80
2022-10-30T11:29:06.067Z,15.90
2022-10-30T11:31:40.115Z,16.10
2022-10-30T11:34:34.775Z,16.10
2022-10-30T11:37:03.499Z,16.20
2022-10-30T11:39:34.181Z,16.30
2022-10-30T11:42:06.483Z,16.30
2022-10-30T11:44:39.282Z,16.30
2022-10-30T11:47:08.853Z,16.30
2022-10-30T11:49:45.909Z,16.30
2022-10-30T11:52:16.262Z,16.40
2022-10-30T11:54:49.357Z,16.50
2022-10-30T11:57:23.863Z,16.60
2022-10-30T11:59:59.433Z,16.70
2022-10-30T12:02:44.129Z,16.70
2022-10-30T12:08:23.260Z,16.80
2022-10-30T12:11:00.969Z,17.00
2022-10-30T12:13:34.539Z,17.00
2022-10-30T12:16:10.057Z,17.00
2022-10-30T12:18:38.322Z,17.10
2022-10-30T12:21:10.187Z,17.20
2022-10-30T12:23:42.413Z,17.00
2022-10-30T12:26:13.189Z,17.00
2022-10-30T12:28:54.185Z,17.00
2022-10-30T12:31:28.061Z,17.20
2022-10-30T12:36:54.499Z,17.40
2022-10-30T12:39:31.268Z,17.40
2022-10-30T12:42:03.662Z,17.50
2022-10-30T12:44:38.251Z,17.40
2022-10-30T12:47:15.239Z,17.30
2022-10-30T12:49:49.343Z,17.00
2022-10-30T12:52:21.242Z,16.70
2022-10-30T12:54:55.957Z,16.60
2022-10-30T12:57:32.296Z,16.50
2022-10-30T13:00:04.259Z,16.40
2022-10-30T13:02:47.245Z,16.30
2022-10-30T13:05:30.542Z,16.30
2022-10-30T13:08:14.324Z,16.20
2022-10-30T13:10:48.060Z,16.20
2022-10-30T13:13:21.231Z,16.10
2022-10-30T13:15:51.900Z,16.00
2022-10-30T13:18:22.062Z,16.00
2022-10-30T13:21:00.247Z,15.90
2022-10-30T13:23:34.831Z,15.90
2022-10-30T13:26:17.335Z,15.90
2022-10-30T13:28:57.265Z,15.90
2022-10-30T13:31:36.249Z,15.90
2022-10-30T13:34:07.931Z,15.80
2022-10-30T13:36:47.161Z,15.70
2022-10-30T13:39:24.235Z,15.70
2022-10-30T13:42:11.210Z,15.60
2022-10-30T13:44:48.836Z,15.60
2022-10-30T13:47:30.108Z,15.60
2022-10-30T13:50:14.495Z,15.60
2022-10-30T13:52:49.071Z,15.60
2022-10-30T13:55:23.473Z,15.50
2022-10-30T13:58:03.100Z,15.50
2022-10-30T14:00:46.317Z,15.40
2022-10-30T14:03:26.114Z,15.40
2022-10-30T14:06:04.283Z,15.40
2022-10-30T14:08:40.059Z,15.30
2022-10-30T14:11:13.254Z,15.30
2022-10-30T14:13:58.094Z,15.30
2022-10-30T14:16:39.350Z,15.20
2022-10-30T14:19:09.387Z,15.20
2022-10-30T14:21:45.749Z,15.20
2022-10-30T14:24:21.490Z,15.20
2022-10-30T14:26:56.332Z,15.10
2022-10-30T14:29:54.095Z,15.10
2022-10-30T14:32:46.611Z,15.10
2022-10-30T14:35:41.379Z,15.00
2022-10-30T14:38:38.630Z,15.00
2022-10-30T14:41:35.386Z,15.00
2022-10-30T14:44:45.722Z,15.00
2022-10-30T14:47:49.261Z,14.90
2022-10-30T14:50:23.370Z,14.90
2022-10-30T14:53:13.166Z,14.90
2022-10-30T14:55:57.293Z,14.80
2022-10-30T14:58:28.515Z,14.80
2022-10-30T15:01:30.385Z,14.80
2022-10-30T15:04:17.421Z,14.70
2022-10-30T15:06:57.002Z,14.70
2022-10-30T15:09:39.870Z,14.70
2022-10-30T15:12:24.355Z,14.70
2022-10-30T15:14:58.208Z,14.70
2022-10-30T15:17:32.354Z,14.60
2022-10-30T15:20:06.306Z,14.60
2022-10-30T15:22:37.498Z,14.60
2022-10-30T15:25:08.310Z,14.50
2022-10-30T15:27:47.415Z,14.50
2022-10-30T15:30:22.653Z,14.50
2022-10-30T15:32:51.124Z,14.50
2022-10-30T15:35:22.919Z,14.50
2022-10-30T15:38:01.568Z,14.40
2022-10-30T15:40:31.512Z,14.40
2022-10-30T15:43:02.482Z,14.40
2022-10-30T15:45:35.342Z,14.40
2022-10-30T15:48:09.280Z,14.40
2022-10-30T15:50:45.740Z,14.50
2022-10-30T15:53:21.165Z,14.50
2022-10-30T15:55:52.675Z,14.50
2022-10-30T15:58:24.372Z,14.50
2022-10-30T16:01:01.424Z,14.50
2022-10-30T16:03:30.876Z,14.50
2022-10-30T16:06:14.222Z,14.60
2022-10-30T16:08:49.452Z,14.60
2022-10-30T16:11:18.497Z,14.50
2022-10-30T16:13:46.664Z,14.60
2022-10-30T16:16:19.382Z,14.60
2022-10-30T16:18:48.352Z,14.60
2022-10-30T16:21:21.322Z,14.50
2022-10-30T16:23:54.422Z,14.50
2022-10-30T16:26:32.703Z,14.50
2022-10-30T16:29:08.230Z,14.50
2022-10-30T16:31:38.339Z,14.50
2022-10-30T16:34:12.482Z,14.50
2022-10-30T16:36:43.402Z,14.50
2022-10-30T16:39:17.613Z,14.50
2022-10-30T16:41:49.254Z,14.50
2022-10-30T16:44:20.980Z,14.40
2022-10-30T16:46:57.395Z,14.40
2022-10-30T16:49:29.192Z,14.40
2022-10-30T16:52:06.180Z,14.40
2022-10-30T16:54:41.370Z,14.40
2022-10-30T16:57:17.983Z,14.40
2022-10-30T16:59:50.944Z,14.30
2022-10-30T17:02:22.683Z,14.30
2022-10-30T17:04:58.318Z,14.20
2022-10-30T17:07:30.748Z,14.20
2022-10-30T17:09:58.934Z,14.20
2022-10-30T17:12:28.950Z,14.10
2022-10-30T17:15:04.779Z,14.20
2022-10-30T17:17:35.277Z,14.10
2022-10-30T17:20:07.508Z,14.10
2022-10-30T17:22:37.203Z,14.10
2022-10-30T17:25:30.668Z,14.10
2022-10-30T17:28:01.354Z,14.10
2022-10-30T17:30:38.601Z,14.10
2022-10-30T17:33:25.929Z,14.10
2022-10-30T17:38:28.813Z,13.90
2022-10-30T17:40:57.103Z,13.90
2022-10-30T17:43:28.455Z,13.80
2022-10-30T17:45:56.862Z,13.80
2022-10-30T17:48:33.252Z,13.80
2022-10-30T17:51:01.449Z,13.80
2022-10-30T17:53:30.964Z,13.70
2022-10-30T17:56:03.115Z,13.70
2022-10-30T17:58:31.924Z,13.60
2022-10-30T18:01:02.750Z,13.60
2022-10-30T18:03:31.041Z,13.60
2022-10-30T18:06:01.374Z,13.50
2022-10-30T18:08:30.889Z,13.50
2022-10-30T18:10:59.399Z,13.50
2022-10-30T18:13:29.519Z,13.50
2022-10-30T18:15:59.533Z,13.50
2022-10-30T18:18:27.758Z,13.50
2022-10-30T18:20:55.988Z,13.50
2022-10-30T18:26:21.353Z,13.40
2022-10-30T18:28:49.801Z,13.40
2022-10-30T18:31:23.368Z,13.30
2022-10-30T18:33:52.010Z,13.30
2022-10-30T18:36:22.002Z,13.20
2022-10-30T18:38:52.078Z,13.20
2022-10-30T18:41:24.396Z,13.20
2022-10-30T18:43:52.528Z,13.20
2022-10-30T18:46:46.826Z,13.20
2022-10-30T18:49:15.003Z,13.20
2022-10-30T18:51:43.280Z,13.20
2022-10-30T18:54:15.790Z,13.20
2022-10-30T18:56:46.542Z,13.20
2022-10-30T18:59:14.690Z,13.20
2022-10-30T19:01:43.043Z,13.10
2022-10-30T19:04:11.541Z,13.10
2022-10-30T19:06:42.720Z,13.10
2022-10-30T19:09:10.981Z,13.10
2022-10-30T19:11:43.345Z,13.00
2022-10-30T19:14:16.098Z,13.10
2022-10-30T19:16:44.539Z,13.10
2022-10-30T19:19:14.981Z,13.10
2022-10-30T19:21:43.242Z,13.10
2022-10-30T19:24:18.338Z,13.10
2022-10-30T19:26:50.387Z,13.10
2022-10-30T19:29:19.957Z,13.10
2022-10-30T19:31:49.248Z,13.00
2022-10-30T19:34:17.536Z,13.00
2022-10-30T19:36:45.720Z,13.00
2022-10-30T19:39:18.542Z,12.90
2022-10-30T19:41:46.790Z,12.90
2022-10-30T19:44:15.221Z,12.90
2022-10-30T19:46:44.839Z,12.90
2022-10-30T19:49:18.996Z,12.80
2022-10-30T19:51:47.291Z,12.80
2022-10-30T19:54:15.480Z,12.80
2022-10-30T19:56:44.379Z,12.80
2022-10-30T19:59:14.344Z,12.70
2022-10-30T20:01:44.639Z,12.70
2022-10-30T20:04:14.563Z,12.70
2022-10-30T20:06:42.971Z,12.70
2022-10-30T20:09:11.943Z,12.60
2022-10-30T20:11:40.191Z,12.60
2022-10-30T20:14:10.538Z,12.60
2022-10-30T20:16:38.706Z,12.60
2022-10-30T20:19:27.869Z,12.60
2022-10-30T20:21:57.461Z,12.50
2022-10-30T20:24:26.520Z,12.50
2022-10-30T20:26:56.782Z,12.40
2022-10-30T20:29:26.592Z,12.40
2022-10-30T20:31:54.781Z,12.40
2022-10-30T20:34:24.424Z,12.30
2022-10-30T20:36:53.359Z,12.30
2022-10-30T20:39:21.479Z,12.30
2022-10-30T20:41:53.492Z,12.20
2022-10-30T20:44:22.468Z,12.20
2022-10-30T20:46:50.612Z,12.20
2022-10-30T20:49:22.367Z,12.20
2022-10-30T20:51:51.833Z,12.20
2022-10-30T20:54:20.513Z,12.10
2022-10-30T20:56:49.325Z,12.10
2022-10-30T20:59:17.587Z,12.00
2022-10-30T21:01:49.323Z,12.00
2022-10-30T21:04:17.706Z,12.00
2022-10-30T21:06:45.948Z,12.00
2022-10-30T21:09:16.526Z,11.90
2022-10-30T21:11:44.666Z,11.90
2022-10-30T21:14:13.564Z,11.90
2022-10-30T21:16:45.324Z,11.90
2022-10-30T21:19:17.498Z,11.80
2022-10-30T21:21:46.195Z,11.80
2022-10-30T21:24:16.507Z,11.80
2022-10-30T21:26:44.714Z,11.80
2022-10-30T21:29:13.079Z,11.80
2022-10-30T21:31:44.303Z,11.80
2022-10-30T21:34:13.602Z,11.70
2022-10-30T21:36:42.050Z,11.70
2022-10-30T21:39:10.467Z,11.70
2022-10-30T21:41:45.428Z,11.70
2022-10-30T21:44:15.488Z,11.60
2022-10-30T21:46:44.378Z,11.60
2022-10-30T21:49:16.374Z,11.60
2022-10-30T21:51:45.608Z,11.60
2022-10-30T21:54:14.592Z,11.50
2022-10-30T21:56:44.671Z,11.50
2022-10-30T21:59:16.584Z,11.50
2022-10-30T22:01:46.567Z,11.50
2022-10-30T22:04:16.170Z,11.50
2022-10-30T22:06:45.767Z,11.50
2022-10-30T22:09:20.592Z,11.50
2022-10-30T22:11:53.602Z,11.40
2022-10-30T22:14:25.286Z,11.40
2022-10-30T22:16:57.397Z,11.40
2022-10-30T22:19:25.596Z,11.30
2022-10-30T22:21:54.533Z,11.30
2022-10-30T22:24:23.512Z,11.30
2022-10-30T22:26:53.368Z,11.30
2022-10-30T22:29:25.399Z,11.30
2022-10-30T22:31:54.547Z,11.30
2022-10-30T22:34:22.899Z,11.20
2022-10-30T22:36:51.494Z,11.20
2022-10-30T22:39:22.698Z,11.20
2022-10-30T22:41:51.182Z,11.20
2022-10-30T22:44:23.048Z,11.20
2022-10-30T22:46:51.499Z,11.20
2022-10-30T22:49:20.560Z,11.20
2022-10-30T22:51:49.434Z,11.10
2022-10-30T22:54:18.572Z,11.10
2022-10-30T22:56:48.259Z,11.10
2022-10-30T22:59:16.579Z,11.10
2022-10-30T23:01:46.135Z,11.10
2022-10-30T23:04:19.654Z,11.10
2022-10-30T23:06:50.725Z,11.10
2022-10-30T23:09:25.263Z,11.00
2022-10-30T23:11:53.567Z,11.00
2022-10-30T23:14:22.536Z,11.00
2022-10-30T23:16:52.536Z,10.90
2022-10-30T23:19:21.544Z,10.90
2022-10-30T23:21:53.462Z,10.90
2022-10-30T23:24:22.298Z,10.90
2022-10-30T23:26:51.233Z,10.90
2022-10-30T23:29:20.521Z,10.90
2022-10-30T23:31:48.632Z,10.90
2022-10-30T23:34:22.685Z,10.90
2022-10-30T23:36:50.836Z,10.80
2022-10-30T23:39:19.566Z,10.90
2022-10-30T23:41:47.834Z,10.80
2022-10-30T23:44:17.395Z,10.80
2022-10-30T23:46:45.668Z,10.80
2022-10-30T23:49:16.572Z,10.80
2022-10-30T23:51:46.402Z,10.80
2022-10-30T23:54:15.640Z,10.80
2022-10-30T23:56:43.814Z,10.70
2022-10-30T23:59:12.577Z,10.70
